sensor_id;sensor_type;location;lat;lon;timestamp;temperature;humidity
25108;DHT22;13090;53.422;7.670;2023-02-01T00:02:14;8.60;87.30
25108;DHT22;13090;53.422;7.670;2023-02-01T00:07:16;8.60;87.30
25108;DHT22;13090;53.422;7.670;2023-02-01T00:12:20;8.60;87.30
25108;DHT22;13090;53.422;7.670;2023-02-01T00:17:22;8.70;87.30
25108;DHT22;13090;53.422;7.670;2023-02-01T00:22:24;8.70;87.30
25108;DHT22;13090;53.422;7.670;2023-02-01T00:27:28;8.70;87.30
25108;DHT22;13090;53.422;7.670;2023-02-01T00:32:30;8.80;87.20
25108;DHT22;13090;53.422;7.670;2023-02-01T00:37:32;8.70;87.10
25108;DHT22;13090;53.422;7.670;2023-02-01T00:42:36;8.80;87.10
25108;DHT22;13090;53.422;7.670;2023-02-01T00:47:38;8.80;87.00
25108;DHT22;13090;53.422;7.670;2023-02-01T00:52:40;8.80;87.00
25108;DHT22;13090;53.422;7.670;2023-02-01T00:57:44;8.80;86.90
25108;DHT22;13090;53.422;7.670;2023-02-01T01:02:46;8.80;86.90
25108;DHT22;13090;53.422;7.670;2023-02-01T01:07:48;8.80;86.80
25108;DHT22;13090;53.422;7.670;2023-02-01T01:12:51;8.80;86.70
25108;DHT22;13090;53.422;7.670;2023-02-01T01:17:55;8.80;86.70
25108;DHT22;13090;53.422;7.670;2023-02-01T01:22:58;8.80;86.80
25108;DHT22;13090;53.422;7.670;2023-02-01T01:28:01;8.80;86.80
25108;DHT22;13090;53.422;7.670;2023-02-01T01:33:04;8.80;86.80
25108;DHT22;13090;53.422;7.670;2023-02-01T01:38:06;8.80;86.80
25108;DHT22;13090;53.422;7.670;2023-02-01T01:43:14;8.80;86.70
25108;DHT22;13090;53.422;7.670;2023-02-01T01:48:21;8.80;87.50
25108;DHT22;13090;53.422;7.670;2023-02-01T01:53:30;8.80;86.70
25108;DHT22;13090;53.422;7.670;2023-02-01T01:58:35;8.80;86.80
25108;DHT22;13090;53.422;7.670;2023-02-01T02:03:40;8.80;86.80
25108;DHT22;13090;53.422;7.670;2023-02-01T02:08:45;8.80;86.80
25108;DHT22;13090;53.422;7.670;2023-02-01T02:13:51;8.80;87.00
25108;DHT22;13090;53.422;7.670;2023-02-01T02:19:03;8.80;87.20
25108;DHT22;13090;53.422;7.670;2023-02-01T02:30:09;8.70;87.50
25108;DHT22;13090;53.422;7.670;2023-02-01T02:35:27;8.70;87.70
25108;DHT22;13090;53.422;7.670;2023-02-01T02:40:34;8.60;87.80
25108;DHT22;13090;53.422;7.670;2023-02-01T02:45:42;8.60;87.80
25108;DHT22;13090;53.422;7.670;2023-02-01T02:50:52;8.50;88.00
25108;DHT22;13090;53.422;7.670;2023-02-01T02:55:59;8.40;88.20
25108;DHT22;13090;53.422;7.670;2023-02-01T03:01:03;8.40;88.40
25108;DHT22;13090;53.422;7.670;2023-02-01T03:06:13;8.30;88.50
25108;DHT22;13090;53.422;7.670;2023-02-01T03:11:16;8.40;88.70
25108;DHT22;13090;53.422;7.670;2023-02-01T03:16:22;8.40;88.80
25108;DHT22;13090;53.422;7.670;2023-02-01T03:21:28;8.30;89.00
25108;DHT22;13090;53.422;7.670;2023-02-01T03:26:34;8.30;88.90
25108;DHT22;13090;53.422;7.670;2023-02-01T03:31:39;8.20;88.70
25108;DHT22;13090;53.422;7.670;2023-02-01T03:36:48;8.20;88.70
25108;DHT22;13090;53.422;7.670;2023-02-01T03:41:52;8.10;89.20
25108;DHT22;13090;53.422;7.670;2023-02-01T03:46:58;8.10;89.50
25108;DHT22;13090;53.422;7.670;2023-02-01T03:52:03;8.10;89.70
25108;DHT22;13090;53.422;7.670;2023-02-01T03:57:11;8.10;89.70
25108;DHT22;13090;53.422;7.670;2023-02-01T04:02:14;8.10;89.90
25108;DHT22;13090;53.422;7.670;2023-02-01T04:07:17;8.10;90.00
25108;DHT22;13090;53.422;7.670;2023-02-01T04:12:20;8.20;90.00
25108;DHT22;13090;53.422;7.670;2023-02-01T04:17:22;8.20;90.00
25108;DHT22;13090;53.422;7.670;2023-02-01T04:22:25;8.30;90.00
25108;DHT22;13090;53.422;7.670;2023-02-01T04:27:28;8.30;90.00
25108;DHT22;13090;53.422;7.670;2023-02-01T04:32:31;8.30;90.00
25108;DHT22;13090;53.422;7.670;2023-02-01T04:37:35;8.30;90.00
25108;DHT22;13090;53.422;7.670;2023-02-01T04:42:37;8.20;89.80
25108;DHT22;13090;53.422;7.670;2023-02-01T04:47:39;8.20;89.80
25108;DHT22;13090;53.422;7.670;2023-02-01T04:52:44;8.20;90.00
25108;DHT22;13090;53.422;7.670;2023-02-01T04:57:46;8.20;90.00
25108;DHT22;13090;53.422;7.670;2023-02-01T05:02:48;8.20;90.00
25108;DHT22;13090;53.422;7.670;2023-02-01T05:07:52;8.20;90.10
25108;DHT22;13090;53.422;7.670;2023-02-01T05:12:54;8.30;90.10
25108;DHT22;13090;53.422;7.670;2023-02-01T05:17:57;8.20;90.10
25108;DHT22;13090;53.422;7.670;2023-02-01T05:23:00;8.20;90.10
25108;DHT22;13090;53.422;7.670;2023-02-01T05:28:03;8.30;90.20
25108;DHT22;13090;53.422;7.670;2023-02-01T05:33:05;8.30;90.10
25108;DHT22;13090;53.422;7.670;2023-02-01T05:38:09;8.30;90.00
25108;DHT22;13090;53.422;7.670;2023-02-01T05:43:12;8.30;90.00
25108;DHT22;13090;53.422;7.670;2023-02-01T05:48:14;8.20;90.00
25108;DHT22;13090;53.422;7.670;2023-02-01T05:53:18;8.20;90.00
25108;DHT22;13090;53.422;7.670;2023-02-01T05:58:20;8.20;90.10
25108;DHT22;13090;53.422;7.670;2023-02-01T06:03:22;8.20;90.10
25108;DHT22;13090;53.422;7.670;2023-02-01T06:08:26;8.20;90.10
25108;DHT22;13090;53.422;7.670;2023-02-01T06:13:28;8.30;90.50
25108;DHT22;13090;53.422;7.670;2023-02-01T06:18:30;8.30;90.20
25108;DHT22;13090;53.422;7.670;2023-02-01T06:23:34;8.40;90.20
25108;DHT22;13090;53.422;7.670;2023-02-01T06:28:36;8.40;90.20
25108;DHT22;13090;53.422;7.670;2023-02-01T06:33:39;8.40;90.10
25108;DHT22;13090;53.422;7.670;2023-02-01T06:38:43;8.50;90.10
25108;DHT22;13090;53.422;7.670;2023-02-01T06:43:45;8.50;90.10
25108;DHT22;13090;53.422;7.670;2023-02-01T06:48:47;8.50;90.00
25108;DHT22;13090;53.422;7.670;2023-02-01T06:53:51;8.50;90.00
25108;DHT22;13090;53.422;7.670;2023-02-01T06:58:53;8.50;89.50
25108;DHT22;13090;53.422;7.670;2023-02-01T07:03:56;8.50;89.20
25108;DHT22;13090;53.422;7.670;2023-02-01T07:09:00;8.40;88.90
25108;DHT22;13090;53.422;7.670;2023-02-01T07:14:02;8.40;88.80
25108;DHT22;13090;53.422;7.670;2023-02-01T07:19:05;8.30;88.70
25108;DHT22;13090;53.422;7.670;2023-02-01T07:24:08;8.30;89.00
25108;DHT22;13090;53.422;7.670;2023-02-01T07:29:10;8.30;89.00
25108;DHT22;13090;53.422;7.670;2023-02-01T07:34:13;8.30;89.00
25108;DHT22;13090;53.422;7.670;2023-02-01T07:39:16;8.30;89.20
25108;DHT22;13090;53.422;7.670;2023-02-01T07:44:18;8.30;89.40
25108;DHT22;13090;53.422;7.670;2023-02-01T07:49:21;8.40;89.50
25108;DHT22;13090;53.422;7.670;2023-02-01T07:54:24;8.40;89.40
25108;DHT22;13090;53.422;7.670;2023-02-01T07:59:26;8.50;89.40
25108;DHT22;13090;53.422;7.670;2023-02-01T08:04:29;8.60;89.40
25108;DHT22;13090;53.422;7.670;2023-02-01T08:09:32;8.70;89.40
25108;DHT22;13090;53.422;7.670;2023-02-01T08:14:34;8.80;89.10
25108;DHT22;13090;53.422;7.670;2023-02-01T08:19:36;8.80;88.80
25108;DHT22;13090;53.422;7.670;2023-02-01T08:24:40;8.90;88.70
25108;DHT22;13090;53.422;7.670;2023-02-01T08:29:42;8.90;88.60
25108;DHT22;13090;53.422;7.670;2023-02-01T08:34:44;9.00;88.70
25108;DHT22;13090;53.422;7.670;2023-02-01T08:39:50;9.00;88.50
25108;DHT22;13090;53.422;7.670;2023-02-01T08:44:52;9.00;88.60
25108;DHT22;13090;53.422;7.670;2023-02-01T08:49:55;9.10;88.70
25108;DHT22;13090;53.422;7.670;2023-02-01T08:54:58;9.10;88.70
25108;DHT22;13090;53.422;7.670;2023-02-01T09:00:00;9.20;88.80
25108;DHT22;13090;53.422;7.670;2023-02-01T09:05:03;9.20;88.80
25108;DHT22;13090;53.422;7.670;2023-02-01T09:10:08;9.20;88.70
25108;DHT22;13090;53.422;7.670;2023-02-01T09:15:10;9.30;88.70
25108;DHT22;13090;53.422;7.670;2023-02-01T09:20:14;9.30;88.60
25108;DHT22;13090;53.422;7.670;2023-02-01T09:25:17;9.30;88.60
25108;DHT22;13090;53.422;7.670;2023-02-01T09:30:20;9.40;88.60
25108;DHT22;13090;53.422;7.670;2023-02-01T09:35:23;9.40;88.40
25108;DHT22;13090;53.422;7.670;2023-02-01T09:40:27;9.40;88.40
25108;DHT22;13090;53.422;7.670;2023-02-01T09:45:35;9.40;88.40
25108;DHT22;13090;53.422;7.670;2023-02-01T09:50:43;9.30;88.40
25108;DHT22;13090;53.422;7.670;2023-02-01T09:55:50;9.30;88.50
25108;DHT22;13090;53.422;7.670;2023-02-01T10:00:53;9.30;88.50
25108;DHT22;13090;53.422;7.670;2023-02-01T10:06:21;9.30;88.50
25108;DHT22;13090;53.422;7.670;2023-02-01T10:11:35;9.30;88.70
25108;DHT22;13090;53.422;7.670;2023-02-01T10:16:47;9.30;89.50
25108;DHT22;13090;53.422;7.670;2023-02-01T10:21:57;9.30;88.60
25108;DHT22;13090;53.422;7.670;2023-02-01T10:27:12;9.30;88.60
25108;DHT22;13090;53.422;7.670;2023-02-01T10:32:18;9.30;88.70
25108;DHT22;13090;53.422;7.670;2023-02-01T10:37:27;9.20;88.70
25108;DHT22;13090;53.422;7.670;2023-02-01T10:42:31;9.20;89.00
25108;DHT22;13090;53.422;7.670;2023-02-01T10:47:33;9.10;89.00
25108;DHT22;13090;53.422;7.670;2023-02-01T10:52:40;9.00;89.10
25108;DHT22;13090;53.422;7.670;2023-02-01T10:57:55;9.00;89.30
25108;DHT22;13090;53.422;7.670;2023-02-01T11:02:58;8.90;89.60
25108;DHT22;13090;53.422;7.670;2023-02-01T11:08:00;8.80;89.60
25108;DHT22;13090;53.422;7.670;2023-02-01T11:13:04;8.70;89.90
25108;DHT22;13090;53.422;7.670;2023-02-01T11:18:16;8.60;90.00
25108;DHT22;13090;53.422;7.670;2023-02-01T11:23:21;8.60;90.10
25108;DHT22;13090;53.422;7.670;2023-02-01T11:28:29;8.60;90.30
25108;DHT22;13090;53.422;7.670;2023-02-01T11:33:33;8.50;89.90
25108;DHT22;13090;53.422;7.670;2023-02-01T11:38:36;8.30;88.90
25108;DHT22;13090;53.422;7.670;2023-02-01T11:43:52;8.10;88.60
25108;DHT22;13090;53.422;7.670;2023-02-01T11:48:56;7.80;88.50
25108;DHT22;13090;53.422;7.670;2023-02-01T11:54:27;7.60;88.60
25108;DHT22;13090;53.422;7.670;2023-02-01T11:59:49;7.50;89.00
25108;DHT22;13090;53.422;7.670;2023-02-01T12:05:10;7.30;89.40
25108;DHT22;13090;53.422;7.670;2023-02-01T12:10:25;7.30;89.90
25108;DHT22;13090;53.422;7.670;2023-02-01T12:15:55;7.40;90.80
25108;DHT22;13090;53.422;7.670;2023-02-01T12:26:44;8.30;91.00
25108;DHT22;13090;53.422;7.670;2023-02-01T12:32:07;8.80;91.00
25108;DHT22;13090;53.422;7.670;2023-02-01T12:37:21;9.40;91.20
25108;DHT22;13090;53.422;7.670;2023-02-01T12:42:26;10.10;91.30
25108;DHT22;13090;53.422;7.670;2023-02-01T12:47:36;10.70;91.00
25108;DHT22;13090;53.422;7.670;2023-02-01T12:52:46;11.20;90.10
25108;DHT22;13090;53.422;7.670;2023-02-01T12:57:52;11.40;88.30
25108;DHT22;13090;53.422;7.670;2023-02-01T13:03:00;11.30;87.90
25108;DHT22;13090;53.422;7.670;2023-02-01T13:08:07;11.30;87.80
25108;DHT22;13090;53.422;7.670;2023-02-01T13:13:22;11.30;87.60
25108;DHT22;13090;53.422;7.670;2023-02-01T13:18:34;11.30;87.10
25108;DHT22;13090;53.422;7.670;2023-02-01T13:23:38;11.40;88.00
25108;DHT22;13090;53.422;7.670;2023-02-01T13:28:45;11.60;88.90
25108;DHT22;13090;53.422;7.670;2023-02-01T13:34:03;12.00;88.50
25108;DHT22;13090;53.422;7.670;2023-02-01T13:39:37;12.10;85.80
25108;DHT22;13090;53.422;7.670;2023-02-01T13:44:46;11.90;85.00
25108;DHT22;13090;53.422;7.670;2023-02-01T13:49:51;11.80;85.20
25108;DHT22;13090;53.422;7.670;2023-02-01T13:55:25;11.60;84.70
25108;DHT22;13090;53.422;7.670;2023-02-01T14:00:29;11.40;84.90
25108;DHT22;13090;53.422;7.670;2023-02-01T14:11:35;11.20;84.90
25108;DHT22;13090;53.422;7.670;2023-02-01T14:16:38;11.20;85.50
25108;DHT22;13090;53.422;7.670;2023-02-01T14:21:47;11.10;84.80
25108;DHT22;13090;53.422;7.670;2023-02-01T14:26:52;11.00;84.60
25108;DHT22;13090;53.422;7.670;2023-02-01T14:32:03;10.90;85.00
25108;DHT22;13090;53.422;7.670;2023-02-01T14:37:08;10.80;85.10
25108;DHT22;13090;53.422;7.670;2023-02-01T14:42:24;10.80;84.80
25108;DHT22;13090;53.422;7.670;2023-02-01T14:47:36;10.80;84.00
25108;DHT22;13090;53.422;7.670;2023-02-01T14:52:40;10.80;83.90
25108;DHT22;13090;53.422;7.670;2023-02-01T14:57:48;10.70;83.50
25108;DHT22;13090;53.422;7.670;2023-02-01T15:02:53;10.60;83.10
25108;DHT22;13090;53.422;7.670;2023-02-01T15:08:00;10.50;83.50
25108;DHT22;13090;53.422;7.670;2023-02-01T15:13:22;10.50;83.80
25108;DHT22;13090;53.422;7.670;2023-02-01T15:18:26;10.30;83.80
25108;DHT22;13090;53.422;7.670;2023-02-01T15:23:30;10.20;82.40
25108;DHT22;13090;53.422;7.670;2023-02-01T15:28:34;9.80;82.10
25108;DHT22;13090;53.422;7.670;2023-02-01T15:33:36;9.40;82.40
25108;DHT22;13090;53.422;7.670;2023-02-01T15:38:40;9.00;83.10
25108;DHT22;13090;53.422;7.670;2023-02-01T15:43:50;8.80;83.80
25108;DHT22;13090;53.422;7.670;2023-02-01T15:49:19;8.60;84.70
25108;DHT22;13090;53.422;7.670;2023-02-01T15:54:26;8.60;85.70
25108;DHT22;13090;53.422;7.670;2023-02-01T15:59:35;8.60;86.10
25108;DHT22;13090;53.422;7.670;2023-02-01T16:04:46;8.70;86.30
25108;DHT22;13090;53.422;7.670;2023-02-01T16:09:53;8.70;86.40
25108;DHT22;13090;53.422;7.670;2023-02-01T16:14:57;8.70;86.40
25108;DHT22;13090;53.422;7.670;2023-02-01T16:20:00;8.70;86.50
25108;DHT22;13090;53.422;7.670;2023-02-01T16:25:02;8.70;86.30
25108;DHT22;13090;53.422;7.670;2023-02-01T16:30:07;8.80;86.50
25108;DHT22;13090;53.422;7.670;2023-02-01T16:35:14;8.80;86.40
25108;DHT22;13090;53.422;7.670;2023-02-01T16:40:19;8.80;86.10
25108;DHT22;13090;53.422;7.670;2023-02-01T16:45:24;8.70;86.10
25108;DHT22;13090;53.422;7.670;2023-02-01T16:50:26;8.70;86.00
25108;DHT22;13090;53.422;7.670;2023-02-01T16:55:28;8.60;86.00
25108;DHT22;13090;53.422;7.670;2023-02-01T17:00:35;8.60;85.90
25108;DHT22;13090;53.422;7.670;2023-02-01T17:05:37;8.60;86.10
25108;DHT22;13090;53.422;7.670;2023-02-01T17:10:40;8.60;86.20
25108;DHT22;13090;53.422;7.670;2023-02-01T17:15:49;8.60;86.20
25108;DHT22;13090;53.422;7.670;2023-02-01T17:20:51;8.60;86.20
25108;DHT22;13090;53.422;7.670;2023-02-01T17:25:54;8.60;86.20
25108;DHT22;13090;53.422;7.670;2023-02-01T17:30:58;8.60;86.40
25108;DHT22;13090;53.422;7.670;2023-02-01T17:36:08;8.60;86.50
25108;DHT22;13090;53.422;7.670;2023-02-01T17:41:15;8.70;86.60
25108;DHT22;13090;53.422;7.670;2023-02-01T17:46:22;8.70;86.50
25108;DHT22;13090;53.422;7.670;2023-02-01T17:51:28;8.80;86.60
25108;DHT22;13090;53.422;7.670;2023-02-01T17:56:33;8.80;86.40
25108;DHT22;13090;53.422;7.670;2023-02-01T18:01:37;8.80;86.20
25108;DHT22;13090;53.422;7.670;2023-02-01T18:06:39;8.80;86.10
25108;DHT22;13090;53.422;7.670;2023-02-01T18:11:41;8.70;86.00
25108;DHT22;13090;53.422;7.670;2023-02-01T18:16:45;8.60;86.10
25108;DHT22;13090;53.422;7.670;2023-02-01T18:21:47;8.60;86.30
25108;DHT22;13090;53.422;7.670;2023-02-01T18:26:49;8.60;86.40
25108;DHT22;13090;53.422;7.670;2023-02-01T18:31:52;8.60;86.40
25108;DHT22;13090;53.422;7.670;2023-02-01T18:36:55;8.70;86.40
25108;DHT22;13090;53.422;7.670;2023-02-01T18:41:58;8.70;86.20
25108;DHT22;13090;53.422;7.670;2023-02-01T18:47:01;8.60;85.90
25108;DHT22;13090;53.422;7.670;2023-02-01T18:52:04;8.60;85.70
25108;DHT22;13090;53.422;7.670;2023-02-01T18:57:07;8.60;85.50
25108;DHT22;13090;53.422;7.670;2023-02-01T19:02:15;8.50;85.40
25108;DHT22;13090;53.422;7.670;2023-02-01T19:07:17;8.50;85.30
25108;DHT22;13090;53.422;7.670;2023-02-01T19:12:19;8.40;85.50
25108;DHT22;13090;53.422;7.670;2023-02-01T19:17:22;8.30;85.30
25108;DHT22;13090;53.422;7.670;2023-02-01T19:22:26;8.30;85.40
25108;DHT22;13090;53.422;7.670;2023-02-01T19:27:28;8.30;85.50
25108;DHT22;13090;53.422;7.670;2023-02-01T19:32:31;8.30;85.70
25108;DHT22;13090;53.422;7.670;2023-02-01T19:37:34;8.30;85.80
25108;DHT22;13090;53.422;7.670;2023-02-01T19:42:36;8.30;85.90
25108;DHT22;13090;53.422;7.670;2023-02-01T19:47:40;8.40;85.80
25108;DHT22;13090;53.422;7.670;2023-02-01T19:52:42;8.40;85.90
25108;DHT22;13090;53.422;7.670;2023-02-01T19:57:44;8.40;86.00
25108;DHT22;13090;53.422;7.670;2023-02-01T20:02:48;8.50;86.20
25108;DHT22;13090;53.422;7.670;2023-02-01T20:07:50;8.50;86.20
25108;DHT22;13090;53.422;7.670;2023-02-01T20:12:52;8.60;86.40
25108;DHT22;13090;53.422;7.670;2023-02-01T20:17:56;8.60;86.20
25108;DHT22;13090;53.422;7.670;2023-02-01T20:23:01;8.60;86.40
25108;DHT22;13090;53.422;7.670;2023-02-01T20:28:03;8.60;86.40
25108;DHT22;13090;53.422;7.670;2023-02-01T20:33:07;8.60;86.30
25108;DHT22;13090;53.422;7.670;2023-02-01T20:38:09;8.70;86.30
25108;DHT22;13090;53.422;7.670;2023-02-01T20:43:14;8.70;86.10
25108;DHT22;13090;53.422;7.670;2023-02-01T20:48:18;8.70;86.00
25108;DHT22;13090;53.422;7.670;2023-02-01T20:53:20;8.80;85.80
25108;DHT22;13090;53.422;7.670;2023-02-01T20:58:28;8.80;85.50
25108;DHT22;13090;53.422;7.670;2023-02-01T21:03:32;8.80;85.30
25108;DHT22;13090;53.422;7.670;2023-02-01T21:08:34;8.80;85.10
25108;DHT22;13090;53.422;7.670;2023-02-01T21:13:38;8.80;85.00
25108;DHT22;13090;53.422;7.670;2023-02-01T21:18:43;8.90;85.00
25108;DHT22;13090;53.422;7.670;2023-02-01T21:23:45;8.90;84.80
25108;DHT22;13090;53.422;7.670;2023-02-01T21:28:48;8.90;84.80
25108;DHT22;13090;53.422;7.670;2023-02-01T21:33:53;8.90;84.80
25108;DHT22;13090;53.422;7.670;2023-02-01T21:38:55;8.90;84.80
25108;DHT22;13090;53.422;7.670;2023-02-01T21:43:57;8.90;84.70
25108;DHT22;13090;53.422;7.670;2023-02-01T21:49:01;8.90;84.70
25108;DHT22;13090;53.422;7.670;2023-02-01T21:54:09;8.90;84.60
25108;DHT22;13090;53.422;7.670;2023-02-01T21:59:11;9.00;84.50
25108;DHT22;13090;53.422;7.670;2023-02-01T22:04:15;9.00;84.60
25108;DHT22;13090;53.422;7.670;2023-02-01T22:09:20;9.00;84.40
25108;DHT22;13090;53.422;7.670;2023-02-01T22:14:22;9.00;84.50
25108;DHT22;13090;53.422;7.670;2023-02-01T22:19:26;9.00;84.40
25108;DHT22;13090;53.422;7.670;2023-02-01T22:24:28;9.00;84.40
25108;DHT22;13090;53.422;7.670;2023-02-01T22:29:30;9.00;84.20
25108;DHT22;13090;53.422;7.670;2023-02-01T22:34:34;9.00;84.00
25108;DHT22;13090;53.422;7.670;2023-02-01T22:39:36;9.00;84.00
25108;DHT22;13090;53.422;7.670;2023-02-01T22:44:39;9.00;83.90
25108;DHT22;13090;53.422;7.670;2023-02-01T22:49:44;9.00;84.00
25108;DHT22;13090;53.422;7.670;2023-02-01T22:54:46;9.00;84.10
25108;DHT22;13090;53.422;7.670;2023-02-01T22:59:48;9.00;84.30
25108;DHT22;13090;53.422;7.670;2023-02-01T23:04:52;9.00;84.20
25108;DHT22;13090;53.422;7.670;2023-02-01T23:09:54;9.00;84.30
25108;DHT22;13090;53.422;7.670;2023-02-01T23:14:56;9.00;84.30
25108;DHT22;13090;53.422;7.670;2023-02-01T23:20:00;9.00;84.20
25108;DHT22;13090;53.422;7.670;2023-02-01T23:25:02;9.00;83.90
25108;DHT22;13090;53.422;7.670;2023-02-01T23:30:05;9.00;83.70
25108;DHT22;13090;53.422;7.670;2023-02-01T23:35:09;9.00;83.60
25108;DHT22;13090;53.422;7.670;2023-02-01T23:40:12;9.00;83.50
25108;DHT22;13090;53.422;7.670;2023-02-01T23:45:17;9.10;83.50
25108;DHT22;13090;53.422;7.670;2023-02-01T23:50:20;9.10;83.40
25108;DHT22;13090;53.422;7.670;2023-02-01T23:55:24;9.10;83.40
